sensor_id;sensor_type;location;lat;lon;timestamp;temperature;humidity
35027;DHT22;60696;51.426;6.934;2022-09-12T00:00:50;14.80;99.90
35027;DHT22;60696;51.426;6.934;2022-09-12T00:03:15;14.80;99.90
35027;DHT22;60696;51.426;6.934;2022-09-12T00:05:42;14.70;99.90
35027;DHT22;60696;51.426;6.934;2022-09-12T00:08:09;14.80;99.90
35027;DHT22;60696;51.426;6.934;2022-09-12T00:10:40;14.80;99.90
35027;DHT22;60696;51.426;6.934;2022-09-12T00:13:07;14.70;99.90
35027;DHT22;60696;51.426;6.934;2022-09-12T00:15:40;14.70;99.90
35027;DHT22;60696;51.426;6.934;2022-09-12T00:18:08;14.70;99.90
35027;DHT22;60696;51.426;6.934;2022-09-12T00:20:33;14.60;99.90
35027;DHT22;60696;51.426;6.934;2022-09-12T00:22:59;14.60;99.90
35027;DHT22;60696;51.426;6.934;2022-09-12T00:25:25;14.60;99.90
35027;DHT22;60696;51.426;6.934;2022-09-12T00:27:51;14.60;99.90
35027;DHT22;60696;51.426;6.934;2022-09-12T00:30:16;14.50;99.90
35027;DHT22;60696;51.426;6.934;2022-09-12T00:32:42;14.50;99.90
35027;DHT22;60696;51.426;6.934;2022-09-12T00:35:07;14.40;99.90
35027;DHT22;60696;51.426;6.934;2022-09-12T00:37:34;14.40;99.90
35027;DHT22;60696;51.426;6.934;2022-09-12T00:39:59;14.40;99.90
35027;DHT22;60696;51.426;6.934;2022-09-12T00:42:25;14.40;99.90
35027;DHT22;60696;51.426;6.934;2022-09-12T00:44:51;14.30;99.90
35027;DHT22;60696;51.426;6.934;2022-09-12T00:47:24;14.30;99.90
35027;DHT22;60696;51.426;6.934;2022-09-12T00:50:12;14.30;99.90
35027;DHT22;60696;51.426;6.934;2022-09-12T00:52:42;14.30;99.90
35027;DHT22;60696;51.426;6.934;2022-09-12T00:55:13;14.20;99.90
35027;DHT22;60696;51.426;6.934;2022-09-12T00:57:53;14.20;99.90
35027;DHT22;60696;51.426;6.934;2022-09-12T01:00:22;14.20;99.90
35027;DHT22;60696;51.426;6.934;2022-09-12T01:02:52;14.20;99.90
35027;DHT22;60696;51.426;6.934;2022-09-12T01:05:20;14.30;99.90
35027;DHT22;60696;51.426;6.934;2022-09-12T01:07:47;14.20;99.90
35027;DHT22;60696;51.426;6.934;2022-09-12T01:10:14;14.20;99.90
35027;DHT22;60696;51.426;6.934;2022-09-12T01:12:42;14.10;99.90
35027;DHT22;60696;51.426;6.934;2022-09-12T01:15:09;14.10;99.90
35027;DHT22;60696;51.426;6.934;2022-09-12T01:20:39;14.20;99.90
35027;DHT22;60696;51.426;6.934;2022-09-12T01:26:05;14.30;99.90
35027;DHT22;60696;51.426;6.934;2022-09-12T01:29:02;14.30;99.90
35027;DHT22;60696;51.426;6.934;2022-09-12T01:31:42;14.30;99.90
35027;DHT22;60696;51.426;6.934;2022-09-12T01:37:02;14.30;99.90
35027;DHT22;60696;51.426;6.934;2022-09-12T01:47:32;14.60;99.90
35027;DHT22;60696;51.426;6.934;2022-09-12T01:50:12;14.60;99.90
35027;DHT22;60696;51.426;6.934;2022-09-12T01:52:55;14.70;99.90
35027;DHT22;60696;51.426;6.934;2022-09-12T01:55:32;14.70;99.90
35027;DHT22;60696;51.426;6.934;2022-09-12T01:58:08;14.70;99.90
35027;DHT22;60696;51.426;6.934;2022-09-12T02:00:41;14.70;99.90
35027;DHT22;60696;51.426;6.934;2022-09-12T02:03:15;14.70;99.90
35027;DHT22;60696;51.426;6.934;2022-09-12T02:05:55;14.60;99.90
35027;DHT22;60696;51.426;6.934;2022-09-12T02:08:27;14.50;99.90
35027;DHT22;60696;51.426;6.934;2022-09-12T02:10:59;14.40;99.90
35027;DHT22;60696;51.426;6.934;2022-09-12T02:16:06;14.30;99.90
35027;DHT22;60696;51.426;6.934;2022-09-12T02:18:39;14.20;99.90
35027;DHT22;60696;51.426;6.934;2022-09-12T02:21:06;14.20;99.90
35027;DHT22;60696;51.426;6.934;2022-09-12T02:23:34;14.30;99.90
35027;DHT22;60696;51.426;6.934;2022-09-12T02:26:07;14.30;99.90
35027;DHT22;60696;51.426;6.934;2022-09-12T02:28:37;14.30;99.90
35027;DHT22;60696;51.426;6.934;2022-09-12T02:36:16;14.20;99.90
35027;DHT22;60696;51.426;6.934;2022-09-12T02:38:47;14.30;99.90
35027;DHT22;60696;51.426;6.934;2022-09-12T02:41:16;14.30;99.90
35027;DHT22;60696;51.426;6.934;2022-09-12T02:43:44;14.20;99.90
35027;DHT22;60696;51.426;6.934;2022-09-12T02:46:14;14.10;99.90
35027;DHT22;60696;51.426;6.934;2022-09-12T02:48:42;14.00;99.90
35027;DHT22;60696;51.426;6.934;2022-09-12T02:51:09;14.00;99.90
35027;DHT22;60696;51.426;6.934;2022-09-12T02:53:36;13.90;99.90
35027;DHT22;60696;51.426;6.934;2022-09-12T02:56:06;14.00;99.90
35027;DHT22;60696;51.426;6.934;2022-09-12T02:58:32;14.10;99.90
35027;DHT22;60696;51.426;6.934;2022-09-12T03:15:48;14.00;99.90
35027;DHT22;60696;51.426;6.934;2022-09-12T03:18:22;14.10;99.90
35027;DHT22;60696;51.426;6.934;2022-09-12T03:26:39;14.10;99.90
35027;DHT22;60696;51.426;6.934;2022-09-12T03:29:07;14.10;99.90
35027;DHT22;60696;51.426;6.934;2022-09-12T03:31:35;14.10;99.90
35027;DHT22;60696;51.426;6.934;2022-09-12T03:34:00;14.10;99.90
35027;DHT22;60696;51.426;6.934;2022-09-12T03:36:28;14.20;99.90
35027;DHT22;60696;51.426;6.934;2022-09-12T03:38:54;14.10;99.90
35027;DHT22;60696;51.426;6.934;2022-09-12T03:41:20;14.20;99.90
35027;DHT22;60696;51.426;6.934;2022-09-12T03:43:46;14.20;99.90
35027;DHT22;60696;51.426;6.934;2022-09-12T03:46:13;14.20;99.90
35027;DHT22;60696;51.426;6.934;2022-09-12T03:48:39;14.10;99.90
35027;DHT22;60696;51.426;6.934;2022-09-12T03:51:07;14.10;99.90
35027;DHT22;60696;51.426;6.934;2022-09-12T03:53:34;14.10;99.90
35027;DHT22;60696;51.426;6.934;2022-09-12T03:56:04;14.10;99.90
35027;DHT22;60696;51.426;6.934;2022-09-12T03:58:30;14.10;99.90
35027;DHT22;60696;51.426;6.934;2022-09-12T04:00:56;14.00;99.90
35027;DHT22;60696;51.426;6.934;2022-09-12T04:03:21;14.10;99.90
35027;DHT22;60696;51.426;6.934;2022-09-12T04:05:47;14.10;99.90
35027;DHT22;60696;51.426;6.934;2022-09-12T04:08:13;14.00;99.90
35027;DHT22;60696;51.426;6.934;2022-09-12T04:10:39;14.00;99.90
35027;DHT22;60696;51.426;6.934;2022-09-12T04:13:04;14.00;99.90
35027;DHT22;60696;51.426;6.934;2022-09-12T04:15:30;14.00;99.90
35027;DHT22;60696;51.426;6.934;2022-09-12T04:17:56;13.90;99.90
35027;DHT22;60696;51.426;6.934;2022-09-12T04:20:22;13.90;99.90
35027;DHT22;60696;51.426;6.934;2022-09-12T04:22:48;13.90;99.90
35027;DHT22;60696;51.426;6.934;2022-09-12T04:25:13;13.90;99.90
35027;DHT22;60696;51.426;6.934;2022-09-12T04:27:39;13.90;99.90
35027;DHT22;60696;51.426;6.934;2022-09-12T04:30:06;13.90;99.90
35027;DHT22;60696;51.426;6.934;2022-09-12T04:32:33;13.90;99.90
35027;DHT22;60696;51.426;6.934;2022-09-12T04:34:58;14.00;99.90
35027;DHT22;60696;51.426;6.934;2022-09-12T04:37:24;14.00;99.90
35027;DHT22;60696;51.426;6.934;2022-09-12T04:39:49;14.00;99.90
35027;DHT22;60696;51.426;6.934;2022-09-12T04:42:16;14.00;99.90
35027;DHT22;60696;51.426;6.934;2022-09-12T04:44:41;14.00;99.90
35027;DHT22;60696;51.426;6.934;2022-09-12T04:47:07;14.00;99.90
35027;DHT22;60696;51.426;6.934;2022-09-12T04:49:33;14.00;99.90
35027;DHT22;60696;51.426;6.934;2022-09-12T04:51:58;14.10;99.90
35027;DHT22;60696;51.426;6.934;2022-09-12T04:54:24;14.10;99.90
35027;DHT22;60696;51.426;6.934;2022-09-12T04:56:50;14.10;99.90
35027;DHT22;60696;51.426;6.934;2022-09-12T04:59:17;14.10;99.90
35027;DHT22;60696;51.426;6.934;2022-09-12T05:01:43;14.10;99.90
35027;DHT22;60696;51.426;6.934;2022-09-12T05:04:10;14.20;99.90
35027;DHT22;60696;51.426;6.934;2022-09-12T05:06:38;14.20;99.90
35027;DHT22;60696;51.426;6.934;2022-09-12T05:09:05;14.20;99.90
35027;DHT22;60696;51.426;6.934;2022-09-12T05:11:34;14.20;99.90
35027;DHT22;60696;51.426;6.934;2022-09-12T05:14:00;14.20;99.90
35027;DHT22;60696;51.426;6.934;2022-09-12T05:16:26;14.30;99.90
35027;DHT22;60696;51.426;6.934;2022-09-12T05:18:52;14.40;99.90
35027;DHT22;60696;51.426;6.934;2022-09-12T05:21:20;14.40;99.90
35027;DHT22;60696;51.426;6.934;2022-09-12T05:23:53;14.40;99.90
35027;DHT22;60696;51.426;6.934;2022-09-12T05:26:19;14.50;99.90
35027;DHT22;60696;51.426;6.934;2022-09-12T05:28:47;14.50;99.90
35027;DHT22;60696;51.426;6.934;2022-09-12T05:31:13;14.60;99.90
35027;DHT22;60696;51.426;6.934;2022-09-12T05:33:43;14.70;99.90
35027;DHT22;60696;51.426;6.934;2022-09-12T05:36:18;14.70;99.90
35027;DHT22;60696;51.426;6.934;2022-09-12T05:38:44;14.80;99.90
35027;DHT22;60696;51.426;6.934;2022-09-12T05:41:15;14.80;99.90
35027;DHT22;60696;51.426;6.934;2022-09-12T05:43:41;14.90;99.90
35027;DHT22;60696;51.426;6.934;2022-09-12T05:46:18;15.00;99.90
35027;DHT22;60696;51.426;6.934;2022-09-12T05:48:45;15.10;99.90
35027;DHT22;60696;51.426;6.934;2022-09-12T05:51:16;15.20;99.90
35027;DHT22;60696;51.426;6.934;2022-09-12T05:53:44;15.30;99.90
35027;DHT22;60696;51.426;6.934;2022-09-12T05:56:15;15.50;99.90
35027;DHT22;60696;51.426;6.934;2022-09-12T05:58:43;15.70;99.90
35027;DHT22;60696;51.426;6.934;2022-09-12T06:01:14;15.80;99.90
35027;DHT22;60696;51.426;6.934;2022-09-12T06:03:42;15.70;99.90
35027;DHT22;60696;51.426;6.934;2022-09-12T06:06:09;16.00;99.90
35027;DHT22;60696;51.426;6.934;2022-09-12T06:08:39;16.30;99.90
35027;DHT22;60696;51.426;6.934;2022-09-12T06:11:06;16.80;99.90
35027;DHT22;60696;51.426;6.934;2022-09-12T06:13:34;17.00;99.90
35027;DHT22;60696;51.426;6.934;2022-09-12T06:16:05;17.10;99.90
35027;DHT22;60696;51.426;6.934;2022-09-12T06:18:33;17.40;99.90
35027;DHT22;60696;51.426;6.934;2022-09-12T06:21:09;17.60;99.90
35027;DHT22;60696;51.426;6.934;2022-09-12T06:23:35;18.00;99.90
35027;DHT22;60696;51.426;6.934;2022-09-12T06:26:02;18.60;99.90
35027;DHT22;60696;51.426;6.934;2022-09-12T06:28:28;18.60;99.90
35027;DHT22;60696;51.426;6.934;2022-09-12T06:31:01;18.60;99.90
35027;DHT22;60696;51.426;6.934;2022-09-12T06:33:26;18.30;99.90
35027;DHT22;60696;51.426;6.934;2022-09-12T06:35:52;18.20;99.90
35027;DHT22;60696;51.426;6.934;2022-09-12T06:38:17;18.00;99.90
35027;DHT22;60696;51.426;6.934;2022-09-12T06:40:43;17.80;99.90
35027;DHT22;60696;51.426;6.934;2022-09-12T06:43:11;17.60;99.90
35027;DHT22;60696;51.426;6.934;2022-09-12T06:45:37;17.70;99.90
35027;DHT22;60696;51.426;6.934;2022-09-12T06:48:03;17.90;99.90
35027;DHT22;60696;51.426;6.934;2022-09-12T06:50:29;17.90;99.90
35027;DHT22;60696;51.426;6.934;2022-09-12T06:52:55;18.20;99.90
35027;DHT22;60696;51.426;6.934;2022-09-12T06:55:20;18.20;99.90
35027;DHT22;60696;51.426;6.934;2022-09-12T06:57:48;18.40;99.90
35027;DHT22;60696;51.426;6.934;2022-09-12T07:00:14;18.40;99.90
35027;DHT22;60696;51.426;6.934;2022-09-12T07:02:39;18.50;99.90
35027;DHT22;60696;51.426;6.934;2022-09-12T07:05:05;18.70;99.90
35027;DHT22;60696;51.426;6.934;2022-09-12T07:07:31;19.00;99.90
35027;DHT22;60696;51.426;6.934;2022-09-12T07:09:58;18.80;99.90
35027;DHT22;60696;51.426;6.934;2022-09-12T07:12:27;19.10;99.90
35027;DHT22;60696;51.426;6.934;2022-09-12T07:14:53;19.20;99.90
35027;DHT22;60696;51.426;6.934;2022-09-12T07:17:18;19.70;99.90
35027;DHT22;60696;51.426;6.934;2022-09-12T07:19:44;19.90;99.90
35027;DHT22;60696;51.426;6.934;2022-09-12T07:22:10;20.10;99.90
35027;DHT22;60696;51.426;6.934;2022-09-12T07:24:35;20.20;99.90
35027;DHT22;60696;51.426;6.934;2022-09-12T07:27:01;20.20;99.90
35027;DHT22;60696;51.426;6.934;2022-09-12T07:29:27;20.40;99.90
35027;DHT22;60696;51.426;6.934;2022-09-12T07:31:53;20.40;99.90
35027;DHT22;60696;51.426;6.934;2022-09-12T07:34:19;20.50;99.90
35027;DHT22;60696;51.426;6.934;2022-09-12T07:36:44;20.50;99.90
35027;DHT22;60696;51.426;6.934;2022-09-12T07:39:10;20.50;99.90
35027;DHT22;60696;51.426;6.934;2022-09-12T07:41:35;20.40;99.90
35027;DHT22;60696;51.426;6.934;2022-09-12T07:44:02;20.30;99.90
35027;DHT22;60696;51.426;6.934;2022-09-12T07:46:30;20.20;99.90
35027;DHT22;60696;51.426;6.934;2022-09-12T07:48:57;20.20;99.90
35027;DHT22;60696;51.426;6.934;2022-09-12T07:51:24;19.80;99.90
35027;DHT22;60696;51.426;6.934;2022-09-12T07:53:50;19.90;99.90
35027;DHT22;60696;51.426;6.934;2022-09-12T07:56:16;19.90;99.90
35027;DHT22;60696;51.426;6.934;2022-09-12T07:58:43;19.90;99.90
35027;DHT22;60696;51.426;6.934;2022-09-12T08:01:17;20.00;99.90
35027;DHT22;60696;51.426;6.934;2022-09-12T08:03:44;20.30;99.90
35027;DHT22;60696;51.426;6.934;2022-09-12T08:06:13;20.50;99.90
35027;DHT22;60696;51.426;6.934;2022-09-12T08:08:40;20.70;99.90
35027;DHT22;60696;51.426;6.934;2022-09-12T08:11:08;21.00;99.90
35027;DHT22;60696;51.426;6.934;2022-09-12T08:13:35;21.20;99.90
35027;DHT22;60696;51.426;6.934;2022-09-12T08:16:04;21.50;99.90
35027;DHT22;60696;51.426;6.934;2022-09-12T08:18:31;21.90;99.90
35027;DHT22;60696;51.426;6.934;2022-09-12T08:21:03;22.20;99.90
35027;DHT22;60696;51.426;6.934;2022-09-12T08:23:29;22.40;99.90
35027;DHT22;60696;51.426;6.934;2022-09-12T08:25:56;22.60;99.90
35027;DHT22;60696;51.426;6.934;2022-09-12T08:28:22;23.00;99.90
35027;DHT22;60696;51.426;6.934;2022-09-12T08:30:48;23.90;99.90
35027;DHT22;60696;51.426;6.934;2022-09-12T08:33:14;24.60;99.90
35027;DHT22;60696;51.426;6.934;2022-09-12T08:35:40;25.50;99.90
35027;DHT22;60696;51.426;6.934;2022-09-12T08:38:05;26.10;99.90
35027;DHT22;60696;51.426;6.934;2022-09-12T08:40:32;26.10;99.90
35027;DHT22;60696;51.426;6.934;2022-09-12T08:46:58;27.10;99.90
35027;DHT22;60696;51.426;6.934;2022-09-12T08:48:51;27.60;99.90
35027;DHT22;60696;51.426;6.934;2022-09-12T08:51:19;28.30;98.70
35027;DHT22;60696;51.426;6.934;2022-09-12T08:53:46;28.20;97.00
35027;DHT22;60696;51.426;6.934;2022-09-12T08:56:14;28.60;98.30
35027;DHT22;60696;51.426;6.934;2022-09-12T08:58:41;30.10;95.30
35027;DHT22;60696;51.426;6.934;2022-09-12T09:01:33;27.30;95.80
35027;DHT22;60696;51.426;6.934;2022-09-12T09:04:23;26.10;99.30
35027;DHT22;60696;51.426;6.934;2022-09-12T09:07:14;26.00;99.90
35027;DHT22;60696;51.426;6.934;2022-09-12T09:10:07;25.70;99.90
35027;DHT22;60696;51.426;6.934;2022-09-12T09:18:26;26.60;99.90
35027;DHT22;60696;51.426;6.934;2022-09-12T09:23:43;26.20;99.00
35027;DHT22;60696;51.426;6.934;2022-09-12T09:26:25;27.00;97.60
35027;DHT22;60696;51.426;6.934;2022-09-12T09:28:53;29.40;95.60
35027;DHT22;60696;51.426;6.934;2022-09-12T09:31:22;30.90;93.70
35027;DHT22;60696;51.426;6.934;2022-09-12T09:33:50;30.20;87.20
35027;DHT22;60696;51.426;6.934;2022-09-12T09:36:38;30.90;90.70
35027;DHT22;60696;51.426;6.934;2022-09-12T09:39:31;31.40;85.20
35027;DHT22;60696;51.426;6.934;2022-09-12T09:42:10;32.40;82.00
35027;DHT22;60696;51.426;6.934;2022-09-12T09:44:37;33.40;75.50
35027;DHT22;60696;51.426;6.934;2022-09-12T09:47:03;33.10;75.20
35027;DHT22;60696;51.426;6.934;2022-09-12T09:49:32;33.90;71.60
35027;DHT22;60696;51.426;6.934;2022-09-12T09:51:59;34.50;72.20
35027;DHT22;60696;51.426;6.934;2022-09-12T09:54:38;35.50;67.00
35027;DHT22;60696;51.426;6.934;2022-09-12T10:00:23;32.30;69.30
35027;DHT22;60696;51.426;6.934;2022-09-12T10:05:49;34.20;68.20
35027;DHT22;60696;51.426;6.934;2022-09-12T10:11:06;34.90;64.50
35027;DHT22;60696;51.426;6.934;2022-09-12T10:13:39;35.20;64.20
35027;DHT22;60696;51.426;6.934;2022-09-12T10:18:49;33.10;67.00
35027;DHT22;60696;51.426;6.934;2022-09-12T10:26:57;35.00;61.40
35027;DHT22;60696;51.426;6.934;2022-09-12T10:29:28;34.10;62.60
35027;DHT22;60696;51.426;6.934;2022-09-12T10:31:58;35.40;61.50
35027;DHT22;60696;51.426;6.934;2022-09-12T10:34:37;35.80;60.30
35027;DHT22;60696;51.426;6.934;2022-09-12T10:39:29;36.10;58.80
35027;DHT22;60696;51.426;6.934;2022-09-12T10:41:55;35.40;57.20
35027;DHT22;60696;51.426;6.934;2022-09-12T10:44:27;35.50;59.20
35027;DHT22;60696;51.426;6.934;2022-09-12T10:46:54;34.70;59.00
35027;DHT22;60696;51.426;6.934;2022-09-12T10:49:31;34.00;60.80
35027;DHT22;60696;51.426;6.934;2022-09-12T10:52:22;33.10;60.90
35027;DHT22;60696;51.426;6.934;2022-09-12T10:54:48;32.40;62.40
35027;DHT22;60696;51.426;6.934;2022-09-12T11:02:28;29.10;68.50
35027;DHT22;60696;51.426;6.934;2022-09-12T11:12:58;28.00;76.00
35027;DHT22;60696;51.426;6.934;2022-09-12T11:18:18;27.80;77.20
35027;DHT22;60696;51.426;6.934;2022-09-12T11:32:02;27.40;74.00
35027;DHT22;60696;51.426;6.934;2022-09-12T11:40:19;27.10;81.90
35027;DHT22;60696;51.426;6.934;2022-09-12T11:42:51;26.80;78.20
35027;DHT22;60696;51.426;6.934;2022-09-12T11:45:23;26.20;77.80
35027;DHT22;60696;51.426;6.934;2022-09-12T11:47:55;25.50;79.20
35027;DHT22;60696;51.426;6.934;2022-09-12T11:50:27;25.00;82.70
35027;DHT22;60696;51.426;6.934;2022-09-12T11:53:05;25.20;83.10
35027;DHT22;60696;51.426;6.934;2022-09-12T11:55:57;25.70;87.00
35027;DHT22;60696;51.426;6.934;2022-09-12T11:58:25;26.10;87.30
35027;DHT22;60696;51.426;6.934;2022-09-12T12:00:57;26.40;84.30
35027;DHT22;60696;51.426;6.934;2022-09-12T12:03:39;26.10;82.50
35027;DHT22;60696;51.426;6.934;2022-09-12T12:06:30;26.40;86.60
35027;DHT22;60696;51.426;6.934;2022-09-12T12:08:56;25.50;82.50
35027;DHT22;60696;51.426;6.934;2022-09-12T12:11:37;24.90;83.90
35027;DHT22;60696;51.426;6.934;2022-09-12T12:14:20;25.20;86.10
35027;DHT22;60696;51.426;6.934;2022-09-12T12:16:48;25.60;88.40
35027;DHT22;60696;51.426;6.934;2022-09-12T12:21:45;26.10;85.40
35027;DHT22;60696;51.426;6.934;2022-09-12T12:24:25;25.20;83.10
35027;DHT22;60696;51.426;6.934;2022-09-12T12:27:01;25.20;89.30
35027;DHT22;60696;51.426;6.934;2022-09-12T12:36:58;24.90;87.50
35027;DHT22;60696;51.426;6.934;2022-09-12T12:41:57;24.90;86.20
35027;DHT22;60696;51.426;6.934;2022-09-12T12:47:24;24.90;89.80
35027;DHT22;60696;51.426;6.934;2022-09-12T12:49:56;25.00;86.90
35027;DHT22;60696;51.426;6.934;2022-09-12T12:52:23;25.20;84.80
35027;DHT22;60696;51.426;6.934;2022-09-12T12:54:53;24.80;83.90
35027;DHT22;60696;51.426;6.934;2022-09-12T12:57:26;24.60;90.10
35027;DHT22;60696;51.426;6.934;2022-09-12T12:59:54;24.60;85.60
35027;DHT22;60696;51.426;6.934;2022-09-12T13:02:33;24.80;87.00
35027;DHT22;60696;51.426;6.934;2022-09-12T13:05:03;24.90;85.80
35027;DHT22;60696;51.426;6.934;2022-09-12T13:07:37;25.10;87.80
35027;DHT22;60696;51.426;6.934;2022-09-12T13:10:06;25.30;84.50
35027;DHT22;60696;51.426;6.934;2022-09-12T13:12:42;25.20;85.80
35027;DHT22;60696;51.426;6.934;2022-09-12T13:18:23;24.50;84.10
35027;DHT22;60696;51.426;6.934;2022-09-12T13:21:03;24.50;84.40
35027;DHT22;60696;51.426;6.934;2022-09-12T13:23:32;24.60;85.10
35027;DHT22;60696;51.426;6.934;2022-09-12T13:26:00;24.40;85.90
35027;DHT22;60696;51.426;6.934;2022-09-12T13:28:28;24.50;86.80
35027;DHT22;60696;51.426;6.934;2022-09-12T13:33:50;24.40;87.00
35027;DHT22;60696;51.426;6.934;2022-09-12T13:36:51;24.20;87.40
35027;DHT22;60696;51.426;6.934;2022-09-12T13:42:24;24.30;87.60
35027;DHT22;60696;51.426;6.934;2022-09-12T13:45:04;24.40;83.70
35027;DHT22;60696;51.426;6.934;2022-09-12T13:47:42;24.40;85.50
35027;DHT22;60696;51.426;6.934;2022-09-12T13:50:21;24.40;89.00
35027;DHT22;60696;51.426;6.934;2022-09-12T13:52:59;24.50;88.20
35027;DHT22;60696;51.426;6.934;2022-09-12T13:55:35;24.70;90.10
35027;DHT22;60696;51.426;6.934;2022-09-12T13:58:12;24.80;90.30
35027;DHT22;60696;51.426;6.934;2022-09-12T14:00:39;24.90;88.70
35027;DHT22;60696;51.426;6.934;2022-09-12T14:03:25;24.90;88.20
35027;DHT22;60696;51.426;6.934;2022-09-12T14:06:10;24.80;86.70
35027;DHT22;60696;51.426;6.934;2022-09-12T14:08:40;24.70;86.90
35027;DHT22;60696;51.426;6.934;2022-09-12T14:11:25;24.50;86.10
35027;DHT22;60696;51.426;6.934;2022-09-12T14:13:52;24.40;88.90
35027;DHT22;60696;51.426;6.934;2022-09-12T14:16:18;24.50;86.20
35027;DHT22;60696;51.426;6.934;2022-09-12T14:18:46;24.50;87.40
35027;DHT22;60696;51.426;6.934;2022-09-12T14:23:54;24.70;87.50
35027;DHT22;60696;51.426;6.934;2022-09-12T14:26:21;24.70;87.70
35027;DHT22;60696;51.426;6.934;2022-09-12T14:28:48;24.60;87.30
35027;DHT22;60696;51.426;6.934;2022-09-12T14:31:29;24.70;86.40
35027;DHT22;60696;51.426;6.934;2022-09-12T14:34:08;24.70;88.80
35027;DHT22;60696;51.426;6.934;2022-09-12T14:36:49;24.60;83.80
35027;DHT22;60696;51.426;6.934;2022-09-12T14:39:42;24.40;84.80
35027;DHT22;60696;51.426;6.934;2022-09-12T14:42:15;24.50;88.20
35027;DHT22;60696;51.426;6.934;2022-09-12T14:44:51;24.40;85.90
35027;DHT22;60696;51.426;6.934;2022-09-12T14:47:23;24.40;84.10
35027;DHT22;60696;51.426;6.934;2022-09-12T14:49:50;24.20;86.90
35027;DHT22;60696;51.426;6.934;2022-09-12T14:52:27;24.20;89.70
35027;DHT22;60696;51.426;6.934;2022-09-12T14:57:45;23.90;86.50
35027;DHT22;60696;51.426;6.934;2022-09-12T15:02:38;24.20;87.00
35027;DHT22;60696;51.426;6.934;2022-09-12T15:07:35;24.30;88.10
35027;DHT22;60696;51.426;6.934;2022-09-12T15:10:04;24.40;89.00
35027;DHT22;60696;51.426;6.934;2022-09-12T15:12:30;24.40;87.60
35027;DHT22;60696;51.426;6.934;2022-09-12T15:14:59;24.30;87.80
35027;DHT22;60696;51.426;6.934;2022-09-12T15:17:28;24.40;90.20
35027;DHT22;60696;51.426;6.934;2022-09-12T15:19:54;24.40;88.80
35027;DHT22;60696;51.426;6.934;2022-09-12T15:22:22;24.20;90.00
35027;DHT22;60696;51.426;6.934;2022-09-12T15:24:48;24.00;89.70
35027;DHT22;60696;51.426;6.934;2022-09-12T15:27:14;23.90;90.80
35027;DHT22;60696;51.426;6.934;2022-09-12T15:29:39;23.90;90.30
35027;DHT22;60696;51.426;6.934;2022-09-12T15:32:08;23.80;88.00
35027;DHT22;60696;51.426;6.934;2022-09-12T15:34:39;23.80;90.10
35027;DHT22;60696;51.426;6.934;2022-09-12T15:37:11;23.90;89.70
35027;DHT22;60696;51.426;6.934;2022-09-12T15:39:38;23.90;88.60
35027;DHT22;60696;51.426;6.934;2022-09-12T15:42:03;23.80;88.50
35027;DHT22;60696;51.426;6.934;2022-09-12T15:44:29;23.80;90.10
35027;DHT22;60696;51.426;6.934;2022-09-12T15:46:55;23.70;86.00
35027;DHT22;60696;51.426;6.934;2022-09-12T15:49:20;23.70;87.20
35027;DHT22;60696;51.426;6.934;2022-09-12T15:51:46;23.70;88.70
35027;DHT22;60696;51.426;6.934;2022-09-12T15:54:13;23.70;86.20
35027;DHT22;60696;51.426;6.934;2022-09-12T15:56:39;23.70;88.10
35027;DHT22;60696;51.426;6.934;2022-09-12T15:59:05;23.70;87.90
35027;DHT22;60696;51.426;6.934;2022-09-12T16:01:33;23.70;90.10
35027;DHT22;60696;51.426;6.934;2022-09-12T16:04:00;23.70;90.40
35027;DHT22;60696;51.426;6.934;2022-09-12T16:06:27;23.70;90.40
35027;DHT22;60696;51.426;6.934;2022-09-12T16:08:55;23.60;90.00
35027;DHT22;60696;51.426;6.934;2022-09-12T16:11:25;23.60;90.50
35027;DHT22;60696;51.426;6.934;2022-09-12T16:13:52;23.50;89.70
35027;DHT22;60696;51.426;6.934;2022-09-12T16:16:18;23.50;90.20
35027;DHT22;60696;51.426;6.934;2022-09-12T16:18:43;23.40;90.80
35027;DHT22;60696;51.426;6.934;2022-09-12T16:21:09;23.50;91.30
35027;DHT22;60696;51.426;6.934;2022-09-12T16:23:35;23.50;91.70
35027;DHT22;60696;51.426;6.934;2022-09-12T16:26:03;23.50;91.90
35027;DHT22;60696;51.426;6.934;2022-09-12T16:28:29;23.40;91.40
35027;DHT22;60696;51.426;6.934;2022-09-12T16:30:56;23.40;92.20
35027;DHT22;60696;51.426;6.934;2022-09-12T16:33:23;23.40;92.70
35027;DHT22;60696;51.426;6.934;2022-09-12T16:35:48;23.30;92.50
35027;DHT22;60696;51.426;6.934;2022-09-12T16:38:19;23.30;92.80
35027;DHT22;60696;51.426;6.934;2022-09-12T16:40:44;23.30;93.30
35027;DHT22;60696;51.426;6.934;2022-09-12T16:43:10;23.40;92.80
35027;DHT22;60696;51.426;6.934;2022-09-12T16:45:36;23.50;93.90
35027;DHT22;60696;51.426;6.934;2022-09-12T16:48:01;23.50;93.10
35027;DHT22;60696;51.426;6.934;2022-09-12T16:50:27;23.50;93.50
35027;DHT22;60696;51.426;6.934;2022-09-12T16:52:53;23.40;94.20
35027;DHT22;60696;51.426;6.934;2022-09-12T16:55:19;23.40;93.50
35027;DHT22;60696;51.426;6.934;2022-09-12T16:57:44;23.50;93.60
35027;DHT22;60696;51.426;6.934;2022-09-12T17:00:12;23.50;93.40
35027;DHT22;60696;51.426;6.934;2022-09-12T17:02:39;23.40;93.50
35027;DHT22;60696;51.426;6.934;2022-09-12T17:05:05;23.40;93.10
35027;DHT22;60696;51.426;6.934;2022-09-12T17:07:31;23.30;93.80
35027;DHT22;60696;51.426;6.934;2022-09-12T17:09:57;23.30;93.60
35027;DHT22;60696;51.426;6.934;2022-09-12T17:12:23;23.20;94.60
35027;DHT22;60696;51.426;6.934;2022-09-12T17:14:48;23.20;94.50
35027;DHT22;60696;51.426;6.934;2022-09-12T17:17:14;23.20;94.20
35027;DHT22;60696;51.426;6.934;2022-09-12T17:19:39;23.20;94.70
35027;DHT22;60696;51.426;6.934;2022-09-12T17:22:05;23.10;95.60
35027;DHT22;60696;51.426;6.934;2022-09-12T17:24:31;23.00;94.80
35027;DHT22;60696;51.426;6.934;2022-09-12T17:26:57;22.80;95.10
35027;DHT22;60696;51.426;6.934;2022-09-12T17:29:23;22.80;96.10
35027;DHT22;60696;51.426;6.934;2022-09-12T17:31:49;22.60;96.20
35027;DHT22;60696;51.426;6.934;2022-09-12T17:34:15;22.60;96.40
35027;DHT22;60696;51.426;6.934;2022-09-12T17:36:42;22.50;97.30
35027;DHT22;60696;51.426;6.934;2022-09-12T17:39:09;22.40;98.60
35027;DHT22;60696;51.426;6.934;2022-09-12T17:41:35;22.30;98.30
35027;DHT22;60696;51.426;6.934;2022-09-12T17:44:02;22.20;98.50
35027;DHT22;60696;51.426;6.934;2022-09-12T17:46:34;22.10;99.90
35027;DHT22;60696;51.426;6.934;2022-09-12T17:49:00;22.10;99.90
35027;DHT22;60696;51.426;6.934;2022-09-12T17:51:28;21.90;99.90
35027;DHT22;60696;51.426;6.934;2022-09-12T17:54:09;21.70;99.90
35027;DHT22;60696;51.426;6.934;2022-09-12T17:56:37;21.60;99.90
35027;DHT22;60696;51.426;6.934;2022-09-12T17:59:04;21.40;99.90
35027;DHT22;60696;51.426;6.934;2022-09-12T18:01:30;21.20;99.90
35027;DHT22;60696;51.426;6.934;2022-09-12T18:04:15;21.10;99.90
35027;DHT22;60696;51.426;6.934;2022-09-12T18:06:41;20.90;99.90
35027;DHT22;60696;51.426;6.934;2022-09-12T18:09:12;20.80;99.90